sensor_id;sensor_type;location;lat;lon;timestamp;pressure;altitude;pressure_sealevel;temperature;humidity
6532;BME280;3299;42.004;24.868;2022-11-20T00:01:40;97666.72;;;14.07;100.00
6532;BME280;3299;42.004;24.868;2022-11-20T00:04:06;97672.97;;;14.14;100.00
6532;BME280;3299;42.004;24.868;2022-11-20T00:06:31;97678.47;;;14.11;100.00
6532;BME280;3299;42.004;24.868;2022-11-20T00:08:59;97663.97;;;14.08;100.00
6532;BME280;3299;42.004;24.868;2022-11-20T00:11:26;97679.72;;;14.07;100.00
6532;BME280;3299;42.004;24.868;2022-11-20T00:13:54;97668.34;;;14.08;100.00
6532;BME280;3299;42.004;24.868;2022-11-20T00:16:23;97665.75;;;14.08;100.00
6532;BME280;3299;42.004;24.868;2022-11-20T00:18:49;97651.28;;;13.96;100.00
6532;BME280;3299;42.004;24.868;2022-11-20T00:21:24;97646.47;;;14.01;100.00
6532;BME280;3299;42.004;24.868;2022-11-20T00:23:51;97647.53;;;14.08;100.00
6532;BME280;3299;42.004;24.868;2022-11-20T00:26:18;97649.16;;;14.09;100.00
6532;BME280;3299;42.004;24.868;2022-11-20T00:28:49;97642.34;;;14.08;100.00
6532;BME280;3299;42.004;24.868;2022-11-20T00:31:16;97645.59;;;14.10;100.00
6532;BME280;3299;42.004;24.868;2022-11-20T00:33:43;97646.69;;;14.17;100.00
6532;BME280;3299;42.004;24.868;2022-11-20T00:36:16;97668.88;;;14.11;100.00
6532;BME280;3299;42.004;24.868;2022-11-20T00:38:43;97653.25;;;14.11;100.00
6532;BME280;3299;42.004;24.868;2022-11-20T00:41:11;97655.72;;;14.13;100.00
6532;BME280;3299;42.004;24.868;2022-11-20T00:43:37;97650.00;;;14.09;100.00
6532;BME280;3299;42.004;24.868;2022-11-20T00:46:05;97653.56;;;14.08;100.00
6532;BME280;3299;42.004;24.868;2022-11-20T00:48:31;97661.50;;;14.07;100.00
6532;BME280;3299;42.004;24.868;2022-11-20T00:50:57;97657.81;;;14.09;100.00
6532;BME280;3299;42.004;24.868;2022-11-20T00:53:23;97651.78;;;14.09;100.00
6532;BME280;3299;42.004;24.868;2022-11-20T00:56:03;97667.94;;;14.03;100.00
6532;BME280;3299;42.004;24.868;2022-11-20T00:58:31;97664.94;;;14.07;100.00
6532;BME280;3299;42.004;24.868;2022-11-20T01:03:39;97665.59;;;14.09;100.00
6532;BME280;3299;42.004;24.868;2022-11-20T01:06:10;97657.09;;;14.17;100.00
6532;BME280;3299;42.004;24.868;2022-11-20T01:08:37;97647.63;;;14.16;100.00
6532;BME280;3299;42.004;24.868;2022-11-20T01:11:07;97654.09;;;14.12;100.00
6532;BME280;3299;42.004;24.868;2022-11-20T01:13:33;97661.75;;;14.13;100.00
6532;BME280;3299;42.004;24.868;2022-11-20T01:16:09;97659.03;;;14.05;100.00
6532;BME280;3299;42.004;24.868;2022-11-20T01:18:37;97656.59;;;14.04;100.00
6532;BME280;3299;42.004;24.868;2022-11-20T01:21:11;97653.03;;;14.05;100.00
6532;BME280;3299;42.004;24.868;2022-11-20T01:23:38;97657.81;;;14.09;100.00
6532;BME280;3299;42.004;24.868;2022-11-20T01:26:06;97657.34;;;14.14;100.00
6532;BME280;3299;42.004;24.868;2022-11-20T01:28:32;97659.97;;;14.14;100.00
6532;BME280;3299;42.004;24.868;2022-11-20T01:30:58;97664.19;;;14.15;100.00
6532;BME280;3299;42.004;24.868;2022-11-20T01:33:24;97642.34;;;14.08;100.00
6532;BME280;3299;42.004;24.868;2022-11-20T01:35:50;97635.25;;;14.00;100.00
6532;BME280;3299;42.004;24.868;2022-11-20T01:38:16;97633.38;;;13.93;100.00
6532;BME280;3299;42.004;24.868;2022-11-20T01:40:41;97637.06;;;14.00;100.00
6532;BME280;3299;42.004;24.868;2022-11-20T01:43:17;97630.03;;;14.00;100.00
6532;BME280;3299;42.004;24.868;2022-11-20T01:48:38;97633.22;;;13.94;100.00
6532;BME280;3299;42.004;24.868;2022-11-20T01:51:12;97629.53;;;13.97;100.00
6532;BME280;3299;42.004;24.868;2022-11-20T01:53:41;97623.53;;;13.96;100.00
6532;BME280;3299;42.004;24.868;2022-11-20T01:56:10;97623.94;;;13.92;100.00
6532;BME280;3299;42.004;24.868;2022-11-20T01:58:42;97610.25;;;13.90;100.00
6532;BME280;3299;42.004;24.868;2022-11-20T02:01:10;97615.31;;;13.91;100.00
6532;BME280;3299;42.004;24.868;2022-11-20T02:03:36;97611.38;;;13.87;100.00
6532;BME280;3299;42.004;24.868;2022-11-20T02:06:10;97621.09;;;13.85;100.00
6532;BME280;3299;42.004;24.868;2022-11-20T02:08:37;97603.03;;;13.84;100.00
6532;BME280;3299;42.004;24.868;2022-11-20T02:11:03;97609.59;;;13.88;100.00
6532;BME280;3299;42.004;24.868;2022-11-20T02:13:29;97595.91;;;13.86;100.00
6532;BME280;3299;42.004;24.868;2022-11-20T02:16:30;97602.22;;;13.83;100.00
6532;BME280;3299;42.004;24.868;2022-11-20T02:18:59;97605.50;;;13.85;100.00
6532;BME280;3299;42.004;24.868;2022-11-20T02:21:47;97592.25;;;13.79;100.00
6532;BME280;3299;42.004;24.868;2022-11-20T02:24:17;97591.19;;;13.72;100.00
6532;BME280;3299;42.004;24.868;2022-11-20T02:27:02;97608.25;;;13.84;100.00
6532;BME280;3299;42.004;24.868;2022-11-20T02:29:43;97598.81;;;13.83;100.00
6532;BME280;3299;42.004;24.868;2022-11-20T02:32:32;97591.97;;;13.82;100.00
6532;BME280;3299;42.004;24.868;2022-11-20T02:34:58;97583.88;;;13.85;100.00
6532;BME280;3299;42.004;24.868;2022-11-20T02:37:29;97581.28;;;13.85;100.00
6532;BME280;3299;42.004;24.868;2022-11-20T02:39:55;97581.41;;;13.83;100.00
6532;BME280;3299;42.004;24.868;2022-11-20T02:42:21;97587.44;;;13.84;100.00
6532;BME280;3299;42.004;24.868;2022-11-20T02:44:46;97586.78;;;13.82;100.00
6532;BME280;3299;42.004;24.868;2022-11-20T02:47:12;97579.63;;;13.84;100.00
6532;BME280;3299;42.004;24.868;2022-11-20T02:49:37;97579.63;;;13.84;100.00
6532;BME280;3299;42.004;24.868;2022-11-20T02:52:03;97572.88;;;13.91;100.00
6532;BME280;3299;42.004;24.868;2022-11-20T02:54:28;97571.63;;;13.95;100.00
6532;BME280;3299;42.004;24.868;2022-11-20T02:56:54;97568.72;;;13.98;100.00
6532;BME280;3299;42.004;24.868;2022-11-20T02:59:19;97565.47;;;13.96;100.00
6532;BME280;3299;42.004;24.868;2022-11-20T03:01:44;97575.59;;;13.99;100.00
6532;BME280;3299;42.004;24.868;2022-11-20T03:04:10;97573.66;;;14.01;100.00
6532;BME280;3299;42.004;24.868;2022-11-20T03:06:36;97570.66;;;13.96;100.00
6532;BME280;3299;42.004;24.868;2022-11-20T03:09:01;97570.09;;;14.02;100.00
6532;BME280;3299;42.004;24.868;2022-11-20T03:11:27;97580.50;;;14.02;100.00
6532;BME280;3299;42.004;24.868;2022-11-20T03:13:53;97580.78;;;13.99;100.00
6532;BME280;3299;42.004;24.868;2022-11-20T03:16:21;97576.91;;;14.03;100.00
6532;BME280;3299;42.004;24.868;2022-11-20T03:18:47;97585.41;;;14.05;100.00
6532;BME280;3299;42.004;24.868;2022-11-20T03:21:13;97582.81;;;14.05;100.00
6532;BME280;3299;42.004;24.868;2022-11-20T03:23:40;97593.56;;;14.10;100.00
6532;BME280;3299;42.004;24.868;2022-11-20T03:28:37;97582.31;;;14.19;100.00
6532;BME280;3299;42.004;24.868;2022-11-20T03:31:11;97585.19;;;14.16;100.00
6532;BME280;3299;42.004;24.868;2022-11-20T03:33:38;97582.84;;;14.22;100.00
6532;BME280;3299;42.004;24.868;2022-11-20T03:36:05;97574.38;;;14.20;100.00
6532;BME280;3299;42.004;24.868;2022-11-20T03:38:32;97572.00;;;14.27;100.00
6532;BME280;3299;42.004;24.868;2022-11-20T03:41:02;97569.31;;;14.19;100.00
6532;BME280;3299;42.004;24.868;2022-11-20T03:43:28;97557.53;;;14.15;100.00
6532;BME280;3299;42.004;24.868;2022-11-20T03:45:54;97558.97;;;14.27;100.00
6532;BME280;3299;42.004;24.868;2022-11-20T03:48:19;97551.34;;;14.25;100.00
6532;BME280;3299;42.004;24.868;2022-11-20T03:50:45;97547.91;;;14.25;100.00
6532;BME280;3299;42.004;24.868;2022-11-20T03:53:13;97555.34;;;14.20;100.00
6532;BME280;3299;42.004;24.868;2022-11-20T03:55:38;97543.41;;;14.17;100.00
6532;BME280;3299;42.004;24.868;2022-11-20T03:58:04;97547.81;;;14.17;100.00
6532;BME280;3299;42.004;24.868;2022-11-20T04:00:29;97546.72;;;14.19;100.00
6532;BME280;3299;42.004;24.868;2022-11-20T04:02:58;97558.97;;;14.27;100.00
6532;BME280;3299;42.004;24.868;2022-11-20T04:05:23;97552.28;;;14.24;100.00
6532;BME280;3299;42.004;24.868;2022-11-20T04:07:49;97562.19;;;14.21;100.00
6532;BME280;3299;42.004;24.868;2022-11-20T04:10:14;97565.06;;;14.18;100.00
6532;BME280;3299;42.004;24.868;2022-11-20T04:12:40;97566.97;;;14.16;100.00
6532;BME280;3299;42.004;24.868;2022-11-20T04:15:05;97562.94;;;14.31;100.00
6532;BME280;3299;42.004;24.868;2022-11-20T04:17:31;97575.06;;;14.40;100.00
6532;BME280;3299;42.004;24.868;2022-11-20T04:19:56;97575.06;;;14.40;100.00
6532;BME280;3299;42.004;24.868;2022-11-20T04:22:22;97575.59;;;14.43;100.00
6532;BME280;3299;42.004;24.868;2022-11-20T04:24:47;97572.16;;;14.43;100.00
6532;BME280;3299;42.004;24.868;2022-11-20T04:27:12;97564.47;;;14.41;100.00
6532;BME280;3299;42.004;24.868;2022-11-20T04:29:38;97564.84;;;14.64;100.00
6532;BME280;3299;42.004;24.868;2022-11-20T04:32:03;97573.91;;;14.77;100.00
6532;BME280;3299;42.004;24.868;2022-11-20T04:34:29;97575.25;;;15.07;100.00
6532;BME280;3299;42.004;24.868;2022-11-20T04:36:54;97578.63;;;15.25;100.00
6532;BME280;3299;42.004;24.868;2022-11-20T04:39:20;97577.66;;;15.51;100.00
6532;BME280;3299;42.004;24.868;2022-11-20T04:41:45;97579.53;;;15.67;100.00
6532;BME280;3299;42.004;24.868;2022-11-20T04:44:10;97569.16;;;15.83;100.00
6532;BME280;3299;42.004;24.868;2022-11-20T04:46:40;97563.31;;;15.89;100.00
6532;BME280;3299;42.004;24.868;2022-11-20T04:49:07;97561.88;;;15.94;100.00
6532;BME280;3299;42.004;24.868;2022-11-20T04:51:33;97570.75;;;16.25;100.00
6532;BME280;3299;42.004;24.868;2022-11-20T04:53:59;97586.63;;;16.40;100.00
6532;BME280;3299;42.004;24.868;2022-11-20T04:56:24;97585.34;;;16.52;100.00
6532;BME280;3299;42.004;24.868;2022-11-20T04:58:50;97576.38;;;16.78;100.00
6532;BME280;3299;42.004;24.868;2022-11-20T05:01:18;97589.63;;;16.85;100.00
6532;BME280;3299;42.004;24.868;2022-11-20T05:03:44;97604.28;;;16.78;100.00
6532;BME280;3299;42.004;24.868;2022-11-20T05:06:15;97600.69;;;16.63;100.00
6532;BME280;3299;42.004;24.868;2022-11-20T05:08:40;97602.31;;;16.40;100.00
6532;BME280;3299;42.004;24.868;2022-11-20T05:11:08;97612.13;;;16.04;100.00
6532;BME280;3299;42.004;24.868;2022-11-20T05:13:35;97611.50;;;15.69;100.00
6532;BME280;3299;42.004;24.868;2022-11-20T05:16:06;97611.44;;;15.61;100.00
6532;BME280;3299;42.004;24.868;2022-11-20T05:18:33;97605.84;;;15.48;100.00
6532;BME280;3299;42.004;24.868;2022-11-20T05:20:58;97604.41;;;15.28;100.00
6532;BME280;3299;42.004;24.868;2022-11-20T05:23:25;97600.44;;;15.24;100.00
6532;BME280;3299;42.004;24.868;2022-11-20T05:25:54;97593.13;;;15.02;100.00
6532;BME280;3299;42.004;24.868;2022-11-20T05:28:21;97599.88;;;14.87;100.00
6532;BME280;3299;42.004;24.868;2022-11-20T05:30:46;97603.69;;;14.75;100.00
6532;BME280;3299;42.004;24.868;2022-11-20T05:33:12;97612.44;;;14.74;100.00
6532;BME280;3299;42.004;24.868;2022-11-20T05:35:37;97615.66;;;14.68;100.00
6532;BME280;3299;42.004;24.868;2022-11-20T05:38:03;97617.34;;;14.59;100.00
6532;BME280;3299;42.004;24.868;2022-11-20T05:40:28;97611.94;;;14.53;100.00
6532;BME280;3299;42.004;24.868;2022-11-20T05:42:53;97623.75;;;14.47;100.00
6532;BME280;3299;42.004;24.868;2022-11-20T05:45:19;97606.97;;;14.42;100.00
6532;BME280;3299;42.004;24.868;2022-11-20T05:47:44;97603.22;;;14.27;100.00
6532;BME280;3299;42.004;24.868;2022-11-20T05:50:10;97601.59;;;14.26;100.00
6532;BME280;3299;42.004;24.868;2022-11-20T05:52:35;97596.91;;;14.29;100.00
6532;BME280;3299;42.004;24.868;2022-11-20T05:55:00;97598.38;;;14.32;100.00
6532;BME280;3299;42.004;24.868;2022-11-20T05:57:26;97593.78;;;14.26;100.00
6532;BME280;3299;42.004;24.868;2022-11-20T05:59:52;97598.97;;;14.26;100.00
6532;BME280;3299;42.004;24.868;2022-11-20T06:02:17;97611.34;;;14.24;100.00
6532;BME280;3299;42.004;24.868;2022-11-20T06:04:43;97602.56;;;14.25;100.00
6532;BME280;3299;42.004;24.868;2022-11-20T06:07:08;97602.56;;;14.25;100.00
6532;BME280;3299;42.004;24.868;2022-11-20T06:09:34;97604.50;;;14.23;100.00
6532;BME280;3299;42.004;24.868;2022-11-20T06:11:59;97614.06;;;14.22;100.00
6532;BME280;3299;42.004;24.868;2022-11-20T06:14:25;97609.00;;;14.21;100.00
6532;BME280;3299;42.004;24.868;2022-11-20T06:16:50;97620.91;;;14.23;100.00
6532;BME280;3299;42.004;24.868;2022-11-20T06:19:16;97619.22;;;14.32;100.00
6532;BME280;3299;42.004;24.868;2022-11-20T06:21:41;97619.59;;;14.37;100.00
6532;BME280;3299;42.004;24.868;2022-11-20T06:24:09;97634.63;;;14.43;100.00
6532;BME280;3299;42.004;24.868;2022-11-20T06:26:35;97631.28;;;14.50;100.00
6532;BME280;3299;42.004;24.868;2022-11-20T06:29:01;97622.28;;;14.62;100.00
6532;BME280;3299;42.004;24.868;2022-11-20T06:31:27;97629.25;;;14.62;100.00
6532;BME280;3299;42.004;24.868;2022-11-20T06:33:53;97634.13;;;14.57;100.00
6532;BME280;3299;42.004;24.868;2022-11-20T06:36:20;97628.59;;;14.60;100.00
6532;BME280;3299;42.004;24.868;2022-11-20T06:38:46;97625.34;;;14.58;100.00
6532;BME280;3299;42.004;24.868;2022-11-20T06:41:14;97641.94;;;14.57;100.00
6532;BME280;3299;42.004;24.868;2022-11-20T06:43:40;97633.16;;;14.58;100.00
6532;BME280;3299;42.004;24.868;2022-11-20T06:46:06;97630.47;;;14.67;100.00
6532;BME280;3299;42.004;24.868;2022-11-20T06:48:31;97650.31;;;14.68;100.00
6532;BME280;3299;42.004;24.868;2022-11-20T06:50:57;97646.28;;;14.74;100.00
6532;BME280;3299;42.004;24.868;2022-11-20T06:53:23;97654.09;;;14.74;100.00
6532;BME280;3299;42.004;24.868;2022-11-20T06:55:50;97648.59;;;14.59;100.00
6532;BME280;3299;42.004;24.868;2022-11-20T06:58:16;97653.22;;;14.65;100.00
6532;BME280;3299;42.004;24.868;2022-11-20T07:00:42;97654.88;;;14.66;100.00
6532;BME280;3299;42.004;24.868;2022-11-20T07:03:09;97659.75;;;14.69;100.00
6532;BME280;3299;42.004;24.868;2022-11-20T07:05:35;97645.78;;;14.70;100.00
6532;BME280;3299;42.004;24.868;2022-11-20T07:08:02;97648.31;;;14.80;100.00
6532;BME280;3299;42.004;24.868;2022-11-20T07:10:27;97646.84;;;14.77;100.00
6532;BME280;3299;42.004;24.868;2022-11-20T07:12:53;97644.38;;;14.76;100.00
6532;BME280;3299;42.004;24.868;2022-11-20T07:15:21;97645.69;;;14.80;100.00
6532;BME280;3299;42.004;24.868;2022-11-20T07:17:47;97640.72;;;14.86;100.00
6532;BME280;3299;42.004;24.868;2022-11-20T07:20:14;97636.41;;;14.95;100.00
6532;BME280;3299;42.004;24.868;2022-11-20T07:22:39;97636.09;;;14.98;100.00
6532;BME280;3299;42.004;24.868;2022-11-20T07:25:05;97635.94;;;14.99;100.00
6532;BME280;3299;42.004;24.868;2022-11-20T07:27:31;97643.31;;;15.04;100.00
6532;BME280;3299;42.004;24.868;2022-11-20T07:29:57;97639.41;;;15.08;100.00
6532;BME280;3299;42.004;24.868;2022-11-20T07:32:23;97652.16;;;15.11;100.00
6532;BME280;3299;42.004;24.868;2022-11-20T07:34:48;97656.75;;;15.17;100.00
6532;BME280;3299;42.004;24.868;2022-11-20T07:37:14;97656.75;;;15.17;100.00
6532;BME280;3299;42.004;24.868;2022-11-20T07:39:40;97655.31;;;15.22;100.00
6532;BME280;3299;42.004;24.868;2022-11-20T07:42:08;97652.94;;;15.29;100.00
6532;BME280;3299;42.004;24.868;2022-11-20T07:44:34;97656.97;;;15.41;100.00
6532;BME280;3299;42.004;24.868;2022-11-20T07:47:00;97649.06;;;15.58;100.00
6532;BME280;3299;42.004;24.868;2022-11-20T07:49:25;97657.59;;;15.60;100.00
6532;BME280;3299;42.004;24.868;2022-11-20T07:51:51;97662.31;;;15.65;100.00
6532;BME280;3299;42.004;24.868;2022-11-20T07:54:19;97660.91;;;15.70;100.00
6532;BME280;3299;42.004;24.868;2022-11-20T07:56:45;97669.88;;;15.76;100.00
6532;BME280;3299;42.004;24.868;2022-11-20T07:59:11;97651.94;;;15.73;100.00
6532;BME280;3299;42.004;24.868;2022-11-20T08:01:40;97661.56;;;15.72;100.00
6532;BME280;3299;42.004;24.868;2022-11-20T08:04:06;97654.53;;;15.73;100.00
6532;BME280;3299;42.004;24.868;2022-11-20T08:06:31;97661.41;;;15.74;100.00
6532;BME280;3299;42.004;24.868;2022-11-20T08:08:57;97661.22;;;15.75;100.00
6532;BME280;3299;42.004;24.868;2022-11-20T08:11:23;97656.22;;;15.82;100.00
6532;BME280;3299;42.004;24.868;2022-11-20T08:14:07;97669.28;;;15.90;100.00
6532;BME280;3299;42.004;24.868;2022-11-20T08:16:40;97666.25;;;15.94;100.00
6532;BME280;3299;42.004;24.868;2022-11-20T08:19:06;97663.34;;;16.05;100.00
6532;BME280;3299;42.004;24.868;2022-11-20T08:21:32;97671.41;;;16.20;100.00
6532;BME280;3299;42.004;24.868;2022-11-20T08:23:57;97672.47;;;16.43;100.00
6532;BME280;3299;42.004;24.868;2022-11-20T08:26:24;97673.16;;;16.53;100.00
6532;BME280;3299;42.004;24.868;2022-11-20T08:28:53;97673.00;;;16.62;100.00
6532;BME280;3299;42.004;24.868;2022-11-20T08:31:19;97665.69;;;16.82;100.00
6532;BME280;3299;42.004;24.868;2022-11-20T08:33:45;97667.84;;;16.94;100.00
6532;BME280;3299;42.004;24.868;2022-11-20T08:36:10;97647.09;;;17.09;100.00
6532;BME280;3299;42.004;24.868;2022-11-20T08:38:36;97649.19;;;17.21;100.00
6532;BME280;3299;42.004;24.868;2022-11-20T08:41:03;97656.56;;;17.42;100.00
6532;BME280;3299;42.004;24.868;2022-11-20T08:43:47;97648.84;;;17.56;100.00
6532;BME280;3299;42.004;24.868;2022-11-20T08:46:13;97645.41;;;17.72;100.00
6532;BME280;3299;42.004;24.868;2022-11-20T08:48:39;97652.25;;;17.81;100.00
6532;BME280;3299;42.004;24.868;2022-11-20T08:51:04;97643.56;;;17.88;100.00
6532;BME280;3299;42.004;24.868;2022-11-20T08:53:30;97648.47;;;17.91;100.00
6532;BME280;3299;42.004;24.868;2022-11-20T08:55:57;97646.78;;;17.98;100.00
6532;BME280;3299;42.004;24.868;2022-11-20T08:58:23;97643.19;;;17.99;100.00
6532;BME280;3299;42.004;24.868;2022-11-20T09:00:48;97637.44;;;18.04;100.00
6532;BME280;3299;42.004;24.868;2022-11-20T09:03:13;97641.66;;;18.13;100.00
6532;BME280;3299;42.004;24.868;2022-11-20T09:05:39;97637.38;;;18.20;100.00
6532;BME280;3299;42.004;24.868;2022-11-20T09:08:04;97645.69;;;18.31;100.00
6532;BME280;3299;42.004;24.868;2022-11-20T09:10:30;97639.06;;;18.43;100.00
6532;BME280;3299;42.004;24.868;2022-11-20T09:12:56;97631.00;;;18.53;100.00
6532;BME280;3299;42.004;24.868;2022-11-20T09:15:22;97633.41;;;18.62;100.00
6532;BME280;3299;42.004;24.868;2022-11-20T09:20:17;97617.66;;;18.85;100.00
6532;BME280;3299;42.004;24.868;2022-11-20T09:22:42;97607.31;;;18.91;100.00
6532;BME280;3299;42.004;24.868;2022-11-20T09:25:08;97600.19;;;19.00;100.00
6532;BME280;3299;42.004;24.868;2022-11-20T09:27:33;97600.13;;;19.08;100.00
6532;BME280;3299;42.004;24.868;2022-11-20T09:29:58;97598.56;;;19.21;100.00
6532;BME280;3299;42.004;24.868;2022-11-20T09:32:24;97591.59;;;19.43;100.00
6532;BME280;3299;42.004;24.868;2022-11-20T09:34:49;97590.44;;;19.60;100.00
6532;BME280;3299;42.004;24.868;2022-11-20T09:37:15;97593.63;;;19.84;100.00
6532;BME280;3299;42.004;24.868;2022-11-20T09:39:40;97598.66;;;20.15;95.80
6532;BME280;3299;42.004;24.868;2022-11-20T09:55:51;97576.44;;;20.88;100.00
6532;BME280;3299;42.004;24.868;2022-11-20T10:00:49;97577.38;;;21.08;100.00
6532;BME280;3299;42.004;24.868;2022-11-20T10:03:33;97571.31;;;21.08;100.00
6532;BME280;3299;42.004;24.868;2022-11-20T10:06:02;97578.22;;;21.09;100.00
6532;BME280;3299;42.004;24.868;2022-11-20T10:08:39;97566.50;;;21.11;100.00
6532;BME280;3299;42.004;24.868;2022-11-20T10:11:35;97583.69;;;21.14;100.00
6532;BME280;3299;42.004;24.868;2022-11-20T10:19:55;97583.84;;;21.06;100.00
6532;BME280;3299;42.004;24.868;2022-11-20T10:25:18;97571.97;;;21.16;100.00
6532;BME280;3299;42.004;24.868;2022-11-20T10:30:41;97559.72;;;21.30;100.00
6532;BME280;3299;42.004;24.868;2022-11-20T10:35:44;97549.41;;;21.62;99.02
6532;BME280;3299;42.004;24.868;2022-11-20T10:38:24;97551.56;;;21.80;97.45
6532;BME280;3299;42.004;24.868;2022-11-20T10:40:53;97550.81;;;21.99;96.60
6532;BME280;3299;42.004;24.868;2022-11-20T10:43:40;97542.97;;;22.12;94.18
6532;BME280;3299;42.004;24.868;2022-11-20T10:46:14;97539.75;;;22.23;93.92
6532;BME280;3299;42.004;24.868;2022-11-20T10:48:43;97538.72;;;22.24;92.44
6532;BME280;3299;42.004;24.868;2022-11-20T10:56:46;97527.47;;;22.49;87.02
6532;BME280;3299;42.004;24.868;2022-11-20T10:59:22;97537.22;;;22.68;84.03
6532;BME280;3299;42.004;24.868;2022-11-20T11:01:52;97525.47;;;22.77;83.27
6532;BME280;3299;42.004;24.868;2022-11-20T11:07:27;97515.31;;;23.13;83.24
6532;BME280;3299;42.004;24.868;2022-11-20T11:09:56;97508.22;;;23.27;81.34
6532;BME280;3299;42.004;24.868;2022-11-20T11:12:24;97494.19;;;23.33;80.47
6532;BME280;3299;42.004;24.868;2022-11-20T11:14:52;97487.28;;;23.38;82.04
6532;BME280;3299;42.004;24.868;2022-11-20T11:19:57;97500.50;;;23.32;81.75
6532;BME280;3299;42.004;24.868;2022-11-20T11:22:22;97495.81;;;23.34;79.34
6532;BME280;3299;42.004;24.868;2022-11-20T11:24:53;97492.97;;;23.29;78.94
6532;BME280;3299;42.004;24.868;2022-11-20T11:27:19;97501.13;;;23.21;79.07
6532;BME280;3299;42.004;24.868;2022-11-20T11:29:45;97494.19;;;23.13;77.28
6532;BME280;3299;42.004;24.868;2022-11-20T11:32:13;97493.59;;;23.05;78.41
6532;BME280;3299;42.004;24.868;2022-11-20T11:34:40;97497.03;;;22.99;78.81
6532;BME280;3299;42.004;24.868;2022-11-20T11:37:20;97493.00;;;22.90;78.77
6532;BME280;3299;42.004;24.868;2022-11-20T11:39:49;97492.19;;;22.83;79.76
6532;BME280;3299;42.004;24.868;2022-11-20T11:42:18;97498.69;;;22.67;79.76
6532;BME280;3299;42.004;24.868;2022-11-20T11:44:46;97490.56;;;22.56;79.64
6532;BME280;3299;42.004;24.868;2022-11-20T11:47:45;97490.97;;;22.53;80.21
6532;BME280;3299;42.004;24.868;2022-11-20T11:55:12;97484.03;;;22.97;51.74
6532;BME280;3299;42.004;24.868;2022-11-20T11:58:06;97481.63;;;23.09;53.65
6532;BME280;3299;42.004;24.868;2022-11-20T12:00:35;97488.94;;;23.20;50.83
6532;BME280;3299;42.004;24.868;2022-11-20T12:05:41;97479.38;;;23.32;53.11
6532;BME280;3299;42.004;24.868;2022-11-20T12:08:30;97485.03;;;23.35;50.22
6532;BME280;3299;42.004;24.868;2022-11-20T12:15:59;97471.66;;;23.30;57.54
6532;BME280;3299;42.004;24.868;2022-11-20T12:18:27;97468.22;;;23.30;50.51
6532;BME280;3299;42.004;24.868;2022-11-20T12:40:00;97456.44;;;23.00;53.50
6532;BME280;3299;42.004;24.868;2022-11-20T12:42:40;97464.16;;;23.01;51.83
6532;BME280;3299;42.004;24.868;2022-11-20T12:56:35;97454.41;;;23.15;58.01
6532;BME280;3299;42.004;24.868;2022-11-20T13:07:18;97457.09;;;22.76;62.33
6532;BME280;3299;42.004;24.868;2022-11-20T13:09:49;97465.84;;;22.63;63.48
6532;BME280;3299;42.004;24.868;2022-11-20T13:12:25;97474.72;;;22.49;63.64
6532;BME280;3299;42.004;24.868;2022-11-20T13:17:33;97497.41;;;22.37;63.00
6532;BME280;3299;42.004;24.868;2022-11-20T13:20:02;97481.38;;;22.32;62.42
6532;BME280;3299;42.004;24.868;2022-11-20T13:22:42;97484.03;;;22.26;64.18
6532;BME280;3299;42.004;24.868;2022-11-20T13:25:28;97487.84;;;22.10;64.00
6532;BME280;3299;42.004;24.868;2022-11-20T13:27:57;97486.19;;;22.03;67.05
6532;BME280;3299;42.004;24.868;2022-11-20T13:30:24;97512.69;;;21.95;55.40
6532;BME280;3299;42.004;24.868;2022-11-20T13:35:53;97526.09;;;22.00;52.66
6532;BME280;3299;42.004;24.868;2022-11-20T13:38:20;97520.38;;;21.90;54.58
6532;BME280;3299;42.004;24.868;2022-11-20T13:41:00;97530.31;;;21.88;53.53
6532;BME280;3299;42.004;24.868;2022-11-20T13:43:47;97534.97;;;21.86;53.87
6532;BME280;3299;42.004;24.868;2022-11-20T13:46:13;97525.25;;;21.93;52.93
6532;BME280;3299;42.004;24.868;2022-11-20T13:48:43;97543.91;;;21.91;52.63
6532;BME280;3299;42.004;24.868;2022-11-20T13:57:44;97533.72;;;21.82;53.56
6532;BME280;3299;42.004;24.868;2022-11-20T14:00:18;97534.28;;;21.71;54.72
6532;BME280;3299;42.004;24.868;2022-11-20T14:02:53;97534.69;;;21.68;55.76
6532;BME280;3299;42.004;24.868;2022-11-20T14:05:23;97530.72;;;21.57;58.97
6532;BME280;3299;42.004;24.868;2022-11-20T14:07:50;97531.31;;;21.53;58.37
6532;BME280;3299;42.004;24.868;2022-11-20T14:10:34;97531.91;;;21.48;55.84
6532;BME280;3299;42.004;24.868;2022-11-20T14:13:10;97531.94;;;21.55;56.58
6532;BME280;3299;42.004;24.868;2022-11-20T14:15:36;97548.59;;;21.62;55.48
6532;BME280;3299;42.004;24.868;2022-11-20T14:18:13;97551.41;;;21.60;55.70
6532;BME280;3299;42.004;24.868;2022-11-20T14:20:39;97553.03;;;21.61;55.46
6532;BME280;3299;42.004;24.868;2022-11-20T14:23:09;97551.78;;;21.57;55.59
6532;BME280;3299;42.004;24.868;2022-11-20T14:25:35;97553.16;;;21.47;56.15
6532;BME280;3299;42.004;24.868;2022-11-20T14:28:02;97542.56;;;21.34;60.22
6532;BME280;3299;42.004;24.868;2022-11-20T14:30:38;97553.22;;;21.26;58.14
6532;BME280;3299;42.004;24.868;2022-11-20T14:33:10;97550.94;;;21.16;59.66
6532;BME280;3299;42.004;24.868;2022-11-20T14:35:42;97555.16;;;21.11;59.16
6532;BME280;3299;42.004;24.868;2022-11-20T14:38:12;97558.53;;;21.05;59.62
6532;BME280;3299;42.004;24.868;2022-11-20T14:40:38;97549.91;;;20.90;61.08
6532;BME280;3299;42.004;24.868;2022-11-20T14:45:42;97558.75;;;20.61;62.48
6532;BME280;3299;42.004;24.868;2022-11-20T14:48:09;97549.09;;;20.68;61.25
6532;BME280;3299;42.004;24.868;2022-11-20T14:50:37;97538.91;;;20.59;62.73
6532;BME280;3299;42.004;24.868;2022-11-20T14:53:03;97547.09;;;20.49;63.72
6532;BME280;3299;42.004;24.868;2022-11-20T14:55:34;97536.78;;;20.48;62.96
6532;BME280;3299;42.004;24.868;2022-11-20T14:58:23;97539.09;;;20.36;65.08
6532;BME280;3299;42.004;24.868;2022-11-20T15:00:59;97531.25;;;20.22;68.94
6532;BME280;3299;42.004;24.868;2022-11-20T15:05:58;97515.44;;;20.15;65.11
6532;BME280;3299;42.004;24.868;2022-11-20T15:08:24;97529.81;;;20.19;63.35
6532;BME280;3299;42.004;24.868;2022-11-20T15:10:50;97523.19;;;20.23;62.33